createdAt,value
2023-02-01T00:01:13.634Z,99601.25
2023-02-01T00:03:41.347Z,99591.66
2023-02-01T00:06:09.203Z,99582.94
2023-02-01T00:08:37.124Z,99579.50
2023-02-01T00:11:06.806Z,99575.88
2023-02-01T00:13:35.747Z,99587.28
2023-02-01T00:16:07.914Z,99584.66
2023-02-01T00:18:37.402Z,99576.84
2023-02-01T00:21:05.841Z,99575.69
2023-02-01T00:23:35.042Z,99578.34
2023-02-01T00:26:03.429Z,99576.69
2023-02-01T00:28:31.426Z,99579.28
2023-02-01T00:30:59.295Z,99574.13
2023-02-01T00:33:27.067Z,99581.88
2023-02-01T00:36:00.316Z,99587.94
2023-02-01T00:38:28.235Z,99592.19
2023-02-01T00:40:55.894Z,99597.50
2023-02-01T00:43:23.512Z,99590.66
2023-02-01T00:45:51.186Z,99586.09
2023-02-01T00:48:18.841Z,99581.84
2023-02-01T00:50:46.654Z,99580.91
2023-02-01T00:53:15.674Z,99569.75
2023-02-01T00:55:46.709Z,99582.75
2023-02-01T00:58:14.411Z,99587.06
2023-02-01T01:00:42.238Z,99573.19
2023-02-01T01:03:19.365Z,99575.66
2023-02-01T01:05:47.067Z,99578.34
2023-02-01T01:08:16.287Z,99580.00
2023-02-01T01:10:44.352Z,99583.44
2023-02-01T01:13:13.126Z,99574.75
2023-02-01T01:15:41.344Z,99576.59
2023-02-01T01:18:09.726Z,99574.94
2023-02-01T01:20:38.858Z,99579.38
2023-02-01T01:23:07.120Z,99577.59
2023-02-01T01:25:39.499Z,99582.00
2023-02-01T01:28:07.264Z,99562.81
2023-02-01T01:30:35.701Z,99568.09
2023-02-01T01:33:03.478Z,99566.41
2023-02-01T01:35:31.702Z,99560.25
2023-02-01T01:37:59.672Z,99568.13
2023-02-01T01:40:27.485Z,99565.47
2023-02-01T01:42:56.637Z,99566.47
2023-02-01T01:45:27.665Z,99538.69
2023-02-01T01:47:57.249Z,99557.78
2023-02-01T01:50:27.476Z,99549.06
2023-02-01T01:52:56.849Z,99548.28
2023-02-01T01:55:25.178Z,99552.56
2023-02-01T01:57:57.773Z,99554.16
2023-02-01T02:00:25.753Z,99545.56
2023-02-01T02:02:57.439Z,99545.56
2023-02-01T02:05:25.121Z,99535.19
2023-02-01T02:07:54.853Z,99536.88
2023-02-01T02:10:42.738Z,99528.97
2023-02-01T02:13:12.063Z,99515.75
2023-02-01T02:18:29.631Z,99490.56
2023-02-01T02:21:17.929Z,99507.69
2023-02-01T02:24:21.547Z,99504.31
2023-02-01T02:26:58.899Z,99499.91
2023-02-01T02:29:52.100Z,99502.47
2023-02-01T02:32:34.235Z,99503.31
2023-02-01T02:35:04.064Z,99501.63
2023-02-01T02:37:37.191Z,99510.47
2023-02-01T02:40:09.910Z,99513.88
2023-02-01T02:42:59.207Z,99517.28
2023-02-01T02:45:48.440Z,99522.41
2023-02-01T02:48:21.213Z,99535.44
2023-02-01T02:51:11.390Z,99524.13
2023-02-01T02:54:02.892Z,99533.63
2023-02-01T02:56:48.217Z,99530.34
2023-02-01T02:59:35.987Z,99529.56
2023-02-01T03:02:21.468Z,99518.16
2023-02-01T03:04:57.150Z,99515.50
2023-02-01T03:07:54.886Z,99517.31
2023-02-01T03:10:28.448Z,99524.31
2023-02-01T03:12:58.721Z,99517.31
2023-02-01T03:15:31.071Z,99514.59
2023-02-01T03:18:00.108Z,99519.03
2023-02-01T03:20:28.062Z,99523.38
2023-02-01T03:22:57.577Z,99512.22
2023-02-01T03:25:29.087Z,99515.69
2023-02-01T03:27:59.819Z,99515.69
2023-02-01T03:30:30.972Z,99512.25
2023-02-01T03:33:01.165Z,99512.19
2023-02-01T03:35:34.580Z,99507.09
2023-02-01T03:38:10.165Z,99508.81
2023-02-01T03:40:38.924Z,99497.47
2023-02-01T03:43:08.214Z,99494.91
2023-02-01T03:45:39.986Z,99499.38
2023-02-01T03:48:08.605Z,99498.50
2023-02-01T03:50:38.170Z,99495.06
2023-02-01T03:53:09.940Z,99482.88
2023-02-01T03:55:38.324Z,99487.28
2023-02-01T03:58:09.320Z,99489.94
2023-02-01T04:00:37.150Z,99495.00
2023-02-01T04:03:06.188Z,99484.72
2023-02-01T04:05:33.836Z,99488.19
2023-02-01T04:08:01.614Z,99504.72
2023-02-01T04:10:30.700Z,99499.53
2023-02-01T04:12:58.285Z,99508.19
2023-02-01T04:15:26.319Z,99507.28
2023-02-01T04:17:53.879Z,99515.25
2023-02-01T04:20:21.685Z,99516.00
2023-02-01T04:22:49.486Z,99503.88
2023-02-01T04:25:18.191Z,99512.56
2023-02-01T04:27:47.137Z,99497.75
2023-02-01T04:30:15.419Z,99502.22
2023-02-01T04:32:43.043Z,99513.44
2023-02-01T04:35:12.607Z,99508.22
2023-02-01T04:37:40.185Z,99503.72
2023-02-01T04:40:08.930Z,99503.66
2023-02-01T04:42:36.537Z,99499.41
2023-02-01T04:45:06.406Z,99483.78
2023-02-01T04:47:34.123Z,99499.50
2023-02-01T04:50:01.671Z,99506.50
2023-02-01T04:52:29.287Z,99511.00
2023-02-01T04:54:59.318Z,99511.91
2023-02-01T04:57:27.226Z,99516.34
2023-02-01T04:59:54.865Z,99518.06
2023-02-01T05:02:23.811Z,99522.25
2023-02-01T05:04:51.924Z,99520.59
2023-02-01T05:07:19.710Z,99521.50
2023-02-01T05:09:47.305Z,99499.78
2023-02-01T05:12:32.527Z,99507.63
2023-02-01T05:15:00.048Z,99503.19
2023-02-01T05:17:28.984Z,99501.53
2023-02-01T05:19:56.589Z,99494.72
2023-02-01T05:22:24.176Z,99486.94
2023-02-01T05:24:51.782Z,99486.00
2023-02-01T05:27:19.468Z,99481.75
2023-02-01T05:29:46.999Z,99469.63
2023-02-01T05:32:22.103Z,99466.06
2023-02-01T05:34:51.780Z,99474.63
2023-02-01T05:37:19.574Z,99475.53
2023-02-01T05:39:47.174Z,99479.84
2023-02-01T05:42:14.740Z,99489.47
2023-02-01T05:44:42.351Z,99497.34
2023-02-01T05:47:10.027Z,99502.47
2023-02-01T05:49:37.664Z,99511.22
2023-02-01T05:52:06.742Z,99501.56
2023-02-01T05:54:34.314Z,99505.91
2023-02-01T05:57:01.977Z,99506.78
2023-02-01T05:59:30.351Z,99512.00
2023-02-01T06:01:57.925Z,99505.91
2023-02-01T06:04:25.634Z,99522.44
2023-02-01T06:06:53.240Z,99529.19
2023-02-01T06:09:25.364Z,99510.97
2023-02-01T06:11:53.010Z,99518.72
2023-02-01T06:14:20.829Z,99524.69
2023-02-01T06:16:48.421Z,99516.84
2023-02-01T06:19:16.262Z,99497.88
2023-02-01T06:21:43.794Z,99496.84
2023-02-01T06:24:11.689Z,99510.19
2023-02-01T06:26:40.977Z,99509.41
2023-02-01T06:29:08.820Z,99506.84
2023-02-01T06:31:36.535Z,99518.25
2023-02-01T06:34:04.889Z,99519.31
2023-02-01T06:36:32.523Z,99529.69
2023-02-01T06:39:00.743Z,99526.28
2023-02-01T06:41:29.724Z,99531.59
2023-02-01T06:43:58.789Z,99530.84
2023-02-01T06:46:26.372Z,99518.59
2023-02-01T06:48:54.192Z,99528.25
2023-02-01T06:51:23.514Z,99510.81
2023-02-01T06:53:51.120Z,99510.03
2023-02-01T06:56:19.084Z,99510.03
2023-02-01T06:58:46.987Z,99508.34
2023-02-01T07:01:16.284Z,99489.13
2023-02-01T07:03:43.971Z,99487.47
2023-02-01T07:06:12.019Z,99484.03
2023-02-01T07:08:40.300Z,99474.44
2023-02-01T07:11:09.298Z,99468.41
2023-02-01T07:13:37.077Z,99480.56
2023-02-01T07:16:06.584Z,99476.28
2023-02-01T07:18:35.623Z,99491.06
2023-02-01T07:21:03.309Z,99479.72
2023-02-01T07:23:31.183Z,99488.22
2023-02-01T07:26:00.289Z,99491.03
2023-02-01T07:28:28.500Z,99496.13
2023-02-01T07:30:56.092Z,99501.31
2023-02-01T07:33:28.064Z,99504.84
2023-02-01T07:35:57.161Z,99503.13
2023-02-01T07:38:24.755Z,99501.31
2023-02-01T07:40:52.374Z,99495.16
2023-02-01T07:43:19.906Z,99479.50
2023-02-01T07:45:52.675Z,99506.34
2023-02-01T07:48:20.253Z,99513.22
2023-02-01T07:50:47.865Z,99514.88
2023-02-01T07:53:16.848Z,99514.78
2023-02-01T07:55:44.394Z,99517.41
2023-02-01T07:58:11.992Z,99519.06
2023-02-01T08:00:57.259Z,99519.00
2023-02-01T08:03:24.867Z,99522.38
2023-02-01T08:05:56.425Z,99518.06
2023-02-01T08:08:25.641Z,99532.59
2023-02-01T08:10:55.485Z,99536.78
2023-02-01T08:13:23.157Z,99537.56
2023-02-01T08:15:50.710Z,99546.09
2023-02-01T08:18:18.910Z,99540.00
2023-02-01T08:20:48.614Z,99538.88
2023-02-01T08:23:16.376Z,99540.47
2023-02-01T08:25:45.701Z,99543.25
2023-02-01T08:28:13.659Z,99547.56
2023-02-01T08:30:42.997Z,99558.75
2023-02-01T08:33:10.934Z,99555.28
2023-02-01T08:35:43.931Z,99553.59
2023-02-01T08:38:11.811Z,99551.53
2023-02-01T08:40:39.519Z,99550.75
2023-02-01T08:43:08.507Z,99551.44
2023-02-01T08:45:36.268Z,99547.94
2023-02-01T08:48:03.865Z,99561.88
2023-02-01T08:50:31.497Z,99563.69
2023-02-01T08:52:59.137Z,99556.84
2023-02-01T08:55:27.492Z,99562.91
2023-02-01T08:57:55.212Z,99559.31
2023-02-01T09:00:24.706Z,99569.41
2023-02-01T09:02:52.614Z,99565.31
2023-02-01T09:05:23.151Z,99561.94
2023-02-01T09:07:50.904Z,99566.09
2023-02-01T09:10:23.529Z,99560.00
2023-02-01T09:12:57.555Z,99563.28
2023-02-01T09:15:26.538Z,99573.50
2023-02-01T09:17:54.242Z,99574.56
2023-02-01T09:20:25.335Z,99581.66
2023-02-01T09:22:53.456Z,99572.16
2023-02-01T09:25:21.287Z,99595.47
2023-02-01T09:27:48.911Z,99600.72
2023-02-01T09:30:16.751Z,99597.94
2023-02-01T09:32:45.724Z,99610.31
2023-02-01T09:35:13.514Z,99626.81
2023-02-01T09:37:41.174Z,99626.91
2023-02-01T09:40:11.401Z,99621.59
2023-02-01T09:42:52.340Z,99629.44
2023-02-01T09:45:24.695Z,99638.94
2023-02-01T09:47:56.759Z,99638.94
2023-02-01T09:50:30.526Z,99637.88
2023-02-01T09:53:01.601Z,99635.19
2023-02-01T09:55:35.850Z,99636.78
2023-02-01T09:58:05.581Z,99637.47
2023-02-01T10:00:37.085Z,99640.97
2023-02-01T10:03:07.008Z,99634.94
2023-02-01T10:05:49.253Z,99649.59
2023-02-01T10:08:22.954Z,99642.78
2023-02-01T10:10:51.961Z,99626.78
2023-02-01T10:13:34.222Z,99639.22
2023-02-01T10:16:12.397Z,99634.06
2023-02-01T10:18:54.074Z,99631.28
2023-02-01T10:21:32.554Z,99627.50
2023-02-01T10:24:31.204Z,99627.38
2023-02-01T10:27:02.411Z,99630.72
2023-02-01T10:29:35.269Z,99629.84
2023-02-01T10:32:03.522Z,99626.75
2023-02-01T10:34:35.413Z,99625.69
2023-02-01T10:37:13.736Z,99629.28
2023-02-01T10:39:41.522Z,99623.25
2023-02-01T10:42:11.606Z,99627.47
2023-02-01T10:44:43.930Z,99605.88
2023-02-01T10:47:12.424Z,99602.38
2023-02-01T10:49:47.321Z,99600.75
2023-02-01T10:52:18.147Z,99590.53
2023-02-01T10:54:45.964Z,99603.53
2023-02-01T10:57:23.189Z,99604.28
2023-02-01T10:59:50.865Z,99599.22
2023-02-01T11:02:23.461Z,99597.47
2023-02-01T11:04:52.449Z,99592.50
2023-02-01T11:07:25.491Z,99602.81
2023-02-01T11:09:55.865Z,99599.13
2023-02-01T11:12:28.001Z,99594.63
2023-02-01T11:15:00.654Z,99579.78
2023-02-01T11:17:30.315Z,99581.69
2023-02-01T11:20:03.832Z,99589.38
2023-02-01T11:22:31.528Z,99585.84
2023-02-01T11:25:01.134Z,99573.38
2023-02-01T11:27:29.281Z,99590.13
2023-02-01T11:30:01.653Z,99580.47
2023-02-01T11:32:29.692Z,99577.94
2023-02-01T11:35:01.370Z,99586.72
2023-02-01T11:37:32.661Z,99582.41
2023-02-01T11:40:01.793Z,99585.69
2023-02-01T11:42:30.673Z,99575.63
2023-02-01T11:45:21.327Z,99580.59
2023-02-01T11:47:54.028Z,99581.56
2023-02-01T11:50:28.115Z,99572.19
2023-02-01T11:53:21.862Z,99576.47
2023-02-01T11:58:59.934Z,99568.63
2023-02-01T12:01:38.581Z,99564.91
2023-02-01T12:04:31.617Z,99566.69
2023-02-01T12:07:02.768Z,99554.16
2023-02-01T12:10:04.242Z,99550.53
2023-02-01T12:12:39.020Z,99541.06
2023-02-01T12:15:29.839Z,99539.19
2023-02-01T12:18:29.278Z,99526.31
2023-02-01T12:21:06.807Z,99529.53
2023-02-01T12:23:56.297Z,99532.13
2023-02-01T12:26:43.366Z,99537.16
2023-02-01T12:29:25.598Z,99530.56
2023-02-01T12:32:17.816Z,99524.38
2023-02-01T12:34:56.300Z,99523.34
2023-02-01T12:37:32.705Z,99520.78
2023-02-01T12:40:06.801Z,99500.81
2023-02-01T12:42:38.660Z,99509.31
2023-02-01T12:45:14.500Z,99503.94
2023-02-01T12:47:44.344Z,99489.06
2023-02-01T12:50:17.559Z,99491.63
2023-02-01T12:52:48.639Z,99492.63
2023-02-01T12:55:23.100Z,99502.31
2023-02-01T12:57:54.366Z,99492.84
2023-02-01T13:00:29.478Z,99480.06
2023-02-01T13:03:01.477Z,99487.00
2023-02-01T13:05:31.859Z,99490.41
2023-02-01T13:08:01.455Z,99476.50
2023-02-01T13:10:34.816Z,99477.94
2023-02-01T13:13:11.726Z,99490.41
2023-02-01T13:15:42.940Z,99480.69
2023-02-01T13:18:15.634Z,99484.31
2023-02-01T13:20:49.476Z,99481.91
2023-02-01T13:23:27.143Z,99477.34
2023-02-01T13:25:56.159Z,99469.47
2023-02-01T13:28:29.332Z,99483.69
2023-02-01T13:31:19.505Z,99490.56
2023-02-01T13:33:58.266Z,99479.69
2023-02-01T13:36:54.018Z,99480.91
2023-02-01T13:39:46.337Z,99474.69
2023-02-01T13:42:18.046Z,99478.94
2023-02-01T13:44:48.809Z,99474.31
2023-02-01T13:47:24.653Z,99469.81
2023-02-01T13:49:52.955Z,99468.31
2023-02-01T13:52:31.159Z,99472.41
2023-02-01T13:55:17.273Z,99478.50
2023-02-01T13:57:45.990Z,99494.06
2023-02-01T14:00:31.373Z,99486.38
2023-02-01T14:03:18.942Z,99486.59
2023-02-01T14:06:17.994Z,99485.59
2023-02-01T14:09:17.659Z,99501.97
2023-02-01T14:11:47.715Z,99484.81
2023-02-01T14:14:46.569Z,99501.13
2023-02-01T14:17:43.183Z,99483.84
2023-02-01T14:20:49.794Z,99486.53
2023-02-01T14:23:29.253Z,99482.13
2023-02-01T14:26:22.209Z,99483.06
2023-02-01T14:29:03.922Z,99485.81
2023-02-01T14:31:45.737Z,99472.75
2023-02-01T14:34:18.717Z,99483.03
2023-02-01T14:36:50.262Z,99471.66
2023-02-01T14:39:23.691Z,99473.28
2023-02-01T14:41:59.731Z,99480.25
2023-02-01T14:44:37.078Z,99472.47
2023-02-01T14:47:29.930Z,99465.09
2023-02-01T14:50:04.976Z,99465.31
2023-02-01T14:52:35.802Z,99468.84
2023-02-01T14:55:07.700Z,99468.72
2023-02-01T14:57:37.276Z,99470.47
2023-02-01T15:00:10.873Z,99467.00
2023-02-01T15:02:39.829Z,99467.00
2023-02-01T15:05:25.479Z,99454.72
2023-02-01T15:07:53.743Z,99442.84
2023-02-01T15:10:22.874Z,99463.34
2023-02-01T15:12:51.546Z,99445.03
2023-02-01T15:15:21.036Z,99467.03
2023-02-01T15:17:53.544Z,99454.81
2023-02-01T15:20:24.129Z,99471.41
2023-02-01T15:22:56.795Z,99451.47
2023-02-01T15:25:26.545Z,99483.28
2023-02-01T15:27:54.549Z,99469.44
2023-02-01T15:30:24.623Z,99463.41
2023-02-01T15:32:53.115Z,99485.88
2023-02-01T15:35:53.145Z,99483.13
2023-02-01T15:38:36.594Z,99473.53
2023-02-01T15:41:10.242Z,99465.59
2023-02-01T15:43:39.946Z,99477.97
2023-02-01T15:46:11.355Z,99477.34
2023-02-01T15:48:42.729Z,99482.41
2023-02-01T15:51:18.366Z,99478.91
2023-02-01T15:53:52.005Z,99485.09
2023-02-01T15:56:29.349Z,99498.19
2023-02-01T15:58:59.320Z,99480.81
2023-02-01T16:01:27.506Z,99483.66
2023-02-01T16:04:06.143Z,99475.69
2023-02-01T16:06:36.125Z,99472.34
2023-02-01T16:09:12.208Z,99481.22
2023-02-01T16:11:48.986Z,99473.44
2023-02-01T16:14:16.933Z,99484.81
2023-02-01T16:16:44.616Z,99477.75
2023-02-01T16:19:13.237Z,99489.91
2023-02-01T16:21:42.919Z,99464.13
2023-02-01T16:24:11.033Z,99499.44
2023-02-01T16:26:39.819Z,99491.06
2023-02-01T16:29:10.155Z,99491.91
2023-02-01T16:31:40.412Z,99484.16
2023-02-01T16:34:12.325Z,99490.22
2023-02-01T16:36:43.339Z,99493.72
2023-02-01T16:39:13.414Z,99491.22
2023-02-01T16:41:42.333Z,99489.59
2023-02-01T16:44:10.502Z,99489.53
2023-02-01T16:49:19.814Z,99492.34
2023-02-01T16:51:49.721Z,99492.38
2023-02-01T16:54:17.593Z,99494.84
2023-02-01T16:56:46.497Z,99490.25
2023-02-01T16:59:15.186Z,99481.66
2023-02-01T17:01:43.462Z,99482.91
2023-02-01T17:04:12.663Z,99467.22
2023-02-01T17:06:40.828Z,99474.28
2023-02-01T17:09:10.960Z,99464.78
2023-02-01T17:11:38.702Z,99463.16
2023-02-01T17:14:16.669Z,99455.41
2023-02-01T17:16:45.041Z,99457.38
2023-02-01T17:19:15.014Z,99460.88
2023-02-01T17:21:44.681Z,99460.13
2023-02-01T17:24:15.135Z,99455.72
2023-02-01T17:26:42.865Z,99451.50
2023-02-01T17:29:10.905Z,99463.75
2023-02-01T17:31:40.927Z,99470.94
2023-02-01T17:34:08.658Z,99487.38
2023-02-01T17:36:36.719Z,99490.88
2023-02-01T17:39:06.422Z,99453.94
2023-02-01T17:41:35.829Z,99487.31
2023-02-01T17:44:03.543Z,99486.50
2023-02-01T17:46:32.437Z,99487.44
2023-02-01T17:49:01.289Z,99483.06
2023-02-01T17:51:30.153Z,99482.25
2023-02-01T17:53:57.735Z,99479.50
2023-02-01T17:56:26.443Z,99461.19
2023-02-01T17:58:56.217Z,99468.84
2023-02-01T18:01:25.052Z,99469.13
2023-02-01T18:03:53.013Z,99464.03
2023-02-01T18:06:22.660Z,99474.53
2023-02-01T18:08:50.846Z,99483.22
2023-02-01T18:11:20.011Z,99477.28
2023-02-01T18:13:48.563Z,99490.28
2023-02-01T18:16:22.431Z,99494.63
2023-02-01T18:18:50.280Z,99487.72
2023-02-01T18:21:18.907Z,99484.16
2023-02-01T18:23:46.880Z,99482.41
2023-02-01T18:26:15.875Z,99491.13
2023-02-01T18:28:43.632Z,99499.63
2023-02-01T18:31:23.165Z,99472.88
2023-02-01T18:33:51.231Z,99491.00
2023-02-01T18:36:19.063Z,99470.31
2023-02-01T18:38:46.792Z,99496.31
2023-02-01T18:41:16.881Z,99491.78
2023-02-01T18:43:44.809Z,99494.63
2023-02-01T18:46:12.760Z,99488.41
2023-02-01T18:48:42.048Z,99493.53
2023-02-01T18:51:11.233Z,99496.03
2023-02-01T18:53:39.689Z,99497.19
2023-02-01T18:56:08.781Z,99502.28
2023-02-01T18:58:36.477Z,99504.84
2023-02-01T19:01:08.864Z,99506.59
2023-02-01T19:03:40.281Z,99511.63
2023-02-01T19:06:13.637Z,99509.88
2023-02-01T19:08:41.406Z,99506.56
2023-02-01T19:11:10.698Z,99495.28
2023-02-01T19:13:38.444Z,99505.50
2023-02-01T19:16:09.747Z,99505.63
2023-02-01T19:18:38.079Z,99505.72
2023-02-01T19:21:07.516Z,99514.41
2023-02-01T19:23:36.544Z,99514.28
2023-02-01T19:26:04.211Z,99521.31
2023-02-01T19:28:31.830Z,99517.91
2023-02-01T19:31:03.870Z,99526.69
2023-02-01T19:33:31.799Z,99529.94
2023-02-01T19:36:00.111Z,99520.41
2023-02-01T19:38:27.965Z,99527.41
2023-02-01T19:40:57.675Z,99502.97
2023-02-01T19:43:25.688Z,99522.19
2023-02-01T19:45:54.229Z,99519.53
2023-02-01T19:48:22.068Z,99515.25
2023-02-01T19:50:49.859Z,99522.81
2023-02-01T19:53:19.378Z,99517.66
2023-02-01T19:55:47.854Z,99522.75
2023-02-01T19:58:16.805Z,99528.84
2023-02-01T20:00:43.619Z,99528.78
2023-02-01T20:03:11.329Z,99527.91
2023-02-01T20:05:38.936Z,99536.56
2023-02-01T20:08:06.491Z,99532.28
2023-02-01T20:10:34.158Z,99516.66
2023-02-01T20:13:01.757Z,99522.72
2023-02-01T20:15:31.674Z,99502.94
2023-02-01T20:17:59.340Z,99512.28
2023-02-01T20:20:28.555Z,99519.22
2023-02-01T20:22:56.549Z,99523.50
2023-02-01T20:25:24.548Z,99512.38
2023-02-01T20:27:53.282Z,99515.69
2023-02-01T20:30:21.134Z,99530.47
2023-02-01T20:32:51.280Z,99533.22
2023-02-01T20:35:20.069Z,99532.09
2023-02-01T20:37:48.874Z,99521.66
2023-02-01T20:40:16.667Z,99529.50
2023-02-01T20:42:44.680Z,99538.19
2023-02-01T20:45:12.358Z,99533.81
2023-02-01T20:47:41.445Z,99533.88
2023-02-01T20:50:11.981Z,99532.09
2023-02-01T20:52:40.188Z,99532.13
2023-02-01T20:55:08.765Z,99535.75
2023-02-01T20:57:36.353Z,99520.91
2023-02-01T21:00:07.969Z,99519.13
2023-02-01T21:02:35.590Z,99526.84
2023-02-01T21:05:03.552Z,99494.81
2023-02-01T21:07:32.799Z,99515.66
2023-02-01T21:10:00.522Z,99517.41
2023-02-01T21:12:28.158Z,99500.06
2023-02-01T21:14:56.237Z,99478.34
2023-02-01T21:17:24.636Z,99506.06
2023-02-01T21:19:52.251Z,99503.34
2023-02-01T21:22:19.853Z,99493.78
2023-02-01T21:24:48.807Z,99508.53
2023-02-01T21:27:16.720Z,99515.78
2023-02-01T21:29:44.339Z,99527.78
2023-02-01T21:32:11.887Z,99533.22
2023-02-01T21:34:39.416Z,99527.16
2023-02-01T21:37:07.048Z,99531.31
2023-02-01T21:39:34.720Z,99532.38
2023-02-01T21:42:17.462Z,99538.31
2023-02-01T21:44:47.436Z,99534.84
2023-02-01T21:47:17.224Z,99530.28
2023-02-01T21:49:45.849Z,99515.72
2023-02-01T21:52:13.733Z,99529.66
2023-02-01T21:54:41.359Z,99535.59
2023-02-01T21:57:11.891Z,99541.75
2023-02-01T21:59:39.716Z,99531.25
2023-02-01T22:02:07.993Z,99538.25
2023-02-01T22:04:36.780Z,99542.47
2023-02-01T22:07:04.343Z,99531.44
2023-02-01T22:09:32.145Z,99522.47
2023-02-01T22:11:59.778Z,99530.28
2023-02-01T22:14:28.736Z,99532.91
2023-02-01T22:16:56.670Z,99515.66
2023-02-01T22:19:24.340Z,99524.38
2023-02-01T22:21:51.919Z,99532.31
2023-02-01T22:24:21.214Z,99537.66
2023-02-01T22:26:49.432Z,99548.72
2023-02-01T22:29:19.214Z,99560.16
2023-02-01T22:31:48.768Z,99542.75
2023-02-01T22:34:16.751Z,99553.19
2023-02-01T22:36:44.340Z,99562.03
2023-02-01T22:39:11.978Z,99556.72
2023-02-01T22:41:39.667Z,99547.13
2023-02-01T22:44:07.557Z,99555.75
2023-02-01T22:46:35.202Z,99552.13
2023-02-01T22:49:05.267Z,99552.16
2023-02-01T22:51:33.886Z,99554.03
2023-02-01T22:54:01.738Z,99558.38
2023-02-01T22:56:31.250Z,99562.59
2023-02-01T22:59:00.109Z,99560.88
2023-02-01T23:01:28.855Z,99559.09
2023-02-01T23:04:00.953Z,99566.91
2023-02-01T23:06:30.806Z,99560.81
2023-02-01T23:08:59.552Z,99565.03
2023-02-01T23:11:28.016Z,99557.13
2023-02-01T23:13:56.034Z,99557.19
2023-02-01T23:16:23.821Z,99555.28
2023-02-01T23:18:51.439Z,99558.75
2023-02-01T23:21:21.066Z,99562.41
2023-02-01T23:23:52.010Z,99565.00
2023-02-01T23:26:20.479Z,99556.13
2023-02-01T23:28:50.211Z,99560.56
2023-02-01T23:31:18.051Z,99560.50
2023-02-01T23:33:46.917Z,99554.28
2023-02-01T23:36:16.410Z,99562.34
2023-02-01T23:38:44.490Z,99561.34
2023-02-01T23:41:15.458Z,99569.25
2023-02-01T23:43:58.784Z,99572.72
2023-02-01T23:46:28.578Z,99561.38
2023-02-01T23:48:56.695Z,99565.75
2023-02-01T23:51:24.785Z,99576.22
2023-02-01T23:53:52.722Z,99572.59
2023-02-01T23:56:23.641Z,99577.72
2023-02-01T23:58:51.906Z,99580.44
